Terminal Aerodrome Forecast
Issued by NWS

Home | Current Version | Previous Version | Text Only | Print | Product List | Glossary On
Versions: 1 2 3 4 5 6 7 8 9 10 11 12 13 14 15 16 17 18 19 20 21
000
FTUS41 KBGM 301726
TAFELM
TAF
KELM 301726Z 3018/0118 VRB03KT P6SM BKN040
     FM010600 11004KT P6SM -RA OVC040
     FM010900 12004KT P6SM -RA OVC025=

USA.gov is the U.S. government's official web portal to all federal, state and local government web resources and services.